Time;durP1;ratioP1;P1;durP2;ratioP2;P2;SDS_P1;SDS_P2;PMS_P1;PMS_P2;Temp;Humidity;BMP_temperature;BMP_pressure;BME280_temperature;BME280_humidity;BME280_pressure;Samples;Min_cycle;Max_cycle;Signal;HPM_P1;HPM_P2
2024/03/17 00:02:18;;;;;;;5.43;3.28;;;;;;;;;;5036890;28;20053;-53
2024/03/17 00:04:44;;;;;;;5.75;3.20;;;;;;;;;;5039324;28;20049;-58
2024/03/17 00:07:13;;;;;;;6.25;3.20;;;;;;;;;;5048437;28;20097;-57
2024/03/17 00:09:40;;;;;;;5.57;2.72;;;;;;;;;;5047187;28;20614;-53
2024/03/17 00:12:13;;;;;;;4.57;2.75;;;;;;;;;;5048098;28;20055;-60
2024/03/17 00:14:39;;;;;;;4.43;2.63;;;;;;;;;;5044724;28;20136;-53
2024/03/17 00:17:06;;;;;;;5.30;3.00;;;;;;;;;;5049245;28;20045;-54
2024/03/17 00:19:32;;;;;;;4.88;2.90;;;;;;;;;;5048734;28;20464;-59
2024/03/17 00:21:59;;;;;;;5.35;3.17;;;;;;;;;;5049409;28;20040;-54
2024/03/17 00:24:34;;;;;;;4.65;2.97;;;;;;;;;;5049204;28;20048;-56
2024/03/17 00:27:00;;;;;;;5.82;3.15;;;;;;;;;;5048876;28;20055;-52
2024/03/17 00:29:28;;;;;;;5.32;3.00;;;;;;;;;;5049582;28;20511;-53
2024/03/17 00:31:57;;;;;;;6.40;2.92;;;;;;;;;;5048641;28;20102;-55
2024/03/17 00:34:24;;;;;;;5.35;3.08;;;;;;;;;;5047170;28;20053;-59
2024/03/17 00:36:51;;;;;;;7.35;3.63;;;;;;;;;;5049006;28;20045;-58
2024/03/17 00:39:18;;;;;;;5.60;3.05;;;;;;;;;;5049463;28;20421;-61
2024/03/17 00:41:46;;;;;;;7.60;3.22;;;;;;;;;;5049314;28;20056;-53
2024/03/17 00:44:13;;;;;;;6.43;3.63;;;;;;;;;;5042566;28;20115;-57
2024/03/17 00:46:39;;;;;;;10.90;4.20;;;;;;;;;;5039456;28;20056;-57
2024/03/17 00:49:06;;;;;;;6.70;3.30;;;;;;;;;;5043862;28;20049;-59
2024/03/17 00:51:32;;;;;;;5.10;3.47;;;;;;;;;;5042270;28;20393;-63
2024/03/17 00:53:59;;;;;;;6.57;3.42;;;;;;;;;;5033366;28;20106;-57
2024/03/17 00:56:25;;;;;;;9.50;5.53;;;;;;;;;;5042791;28;20045;-56
2024/03/17 00:58:53;;;;;;;7.45;4.40;;;;;;;;;;5047242;28;20075;-61
2024/03/17 01:01:19;;;;;;;8.98;4.78;;;;;;;;;;5038258;28;20049;-56
2024/03/17 01:03:47;;;;;;;7.68;4.43;;;;;;;;;;5042360;28;20045;-53
2024/03/17 01:06:13;;;;;;;6.20;4.00;;;;;;;;;;5041103;28;20103;-56
2024/03/17 01:08:40;;;;;;;6.72;3.83;;;;;;;;;;5038148;28;20091;-56
2024/03/17 01:11:08;;;;;;;5.90;3.28;;;;;;;;;;5047414;28;20057;-55
2024/03/17 01:13:37;;;;;;;5.93;3.20;;;;;;;;;;5043883;28;20037;-52
2024/03/17 01:16:05;;;;;;;5.40;3.50;;;;;;;;;;5046827;28;20133;-57
2024/03/17 01:18:32;;;;;;;7.35;3.75;;;;;;;;;;5050646;28;20124;-57
2024/03/17 01:20:58;;;;;;;6.63;3.42;;;;;;;;;;5051386;28;20502;-57
2024/03/17 01:23:25;;;;;;;7.25;3.50;;;;;;;;;;5045718;28;20049;-57
2024/03/17 01:25:50;;;;;;;5.28;3.38;;;;;;;;;;5046442;28;20040;-58
2024/03/17 01:28:17;;;;;;;6.70;3.72;;;;;;;;;;5045121;28;20056;-58
2024/03/17 01:30:43;;;;;;;6.72;3.58;;;;;;;;;;5047900;28;20520;-59
2024/03/17 01:33:12;;;;;;;6.18;3.70;;;;;;;;;;5048284;28;20560;-54
2024/03/17 01:35:38;;;;;;;5.93;3.53;;;;;;;;;;5045940;28;20056;-60
2024/03/17 01:38:05;;;;;;;6.00;3.80;;;;;;;;;;5048059;28;20046;-57
2024/03/17 01:40:31;;;;;;;5.43;3.60;;;;;;;;;;5050953;28;20045;-54
2024/03/17 01:42:57;;;;;;;5.78;3.53;;;;;;;;;;5050835;28;20187;-56
2024/03/17 01:45:28;;;;;;;5.43;2.85;;;;;;;;;;5053271;28;20052;-58
2024/03/17 01:47:57;;;;;;;7.72;3.90;;;;;;;;;;5053011;28;20045;-55
2024/03/17 01:50:26;;;;;;;7.82;3.58;;;;;;;;;;5054288;28;20128;-56
2024/03/17 01:52:55;;;;;;;5.68;3.65;;;;;;;;;;5055315;28;20049;-58
2024/03/17 01:55:21;;;;;;;7.35;3.90;;;;;;;;;;5051206;28;20049;-62
2024/03/17 01:57:49;;;;;;;6.50;3.60;;;;;;;;;;5053874;28;20099;-55
2024/03/17 02:00:15;;;;;;;6.85;3.60;;;;;;;;;;5054734;28;20079;-57
2024/03/17 02:02:42;;;;;;;7.05;3.90;;;;;;;;;;5054478;28;20041;-58
2024/03/17 02:05:08;;;;;;;8.07;4.10;;;;;;;;;;5054461;28;20060;-58
2024/03/17 02:07:37;;;;;;;6.07;3.88;;;;;;;;;;5054166;28;20070;-56
2024/03/17 02:10:03;;;;;;;7.13;4.50;;;;;;;;;;5054499;28;20056;-57
2024/03/17 02:12:31;;;;;;;6.85;3.90;;;;;;;;;;5051541;28;20080;-53
2024/03/17 02:14:58;;;;;;;6.78;3.90;;;;;;;;;;5054128;28;20049;-55
2024/03/17 02:17:27;;;;;;;6.60;3.70;;;;;;;;;;5052618;28;20083;-57
2024/03/17 02:19:53;;;;;;;6.20;3.55;;;;;;;;;;5054162;28;20080;-54
2024/03/17 02:22:21;;;;;;;5.80;3.55;;;;;;;;;;5054245;28;20133;-55
2024/03/17 02:24:47;;;;;;;5.82;3.70;;;;;;;;;;5054002;28;20412;-56
2024/03/17 02:27:14;;;;;;;7.65;4.38;;;;;;;;;;5050798;28;20048;-56
2024/03/17 02:29:40;;;;;;;7.05;3.67;;;;;;;;;;5053980;28;20049;-55
2024/03/17 02:32:07;;;;;;;5.38;3.33;;;;;;;;;;5053763;28;20136;-54
2024/03/17 02:34:34;;;;;;;5.97;3.33;;;;;;;;;;5053265;28;20053;-55
2024/03/17 02:37:01;;;;;;;5.32;3.83;;;;;;;;;;5053322;28;20041;-55
2024/03/17 02:39:33;;;;;;;5.53;3.30;;;;;;;;;;5053576;28;20045;-58
2024/03/17 02:42:01;;;;;;;7.25;4.40;;;;;;;;;;5053949;28;20045;-57
2024/03/17 02:44:29;;;;;;;6.78;4.47;;;;;;;;;;5053860;28;20501;-59
2024/03/17 02:46:55;;;;;;;6.43;3.85;;;;;;;;;;5053553;28;20053;-57
2024/03/17 02:49:22;;;;;;;6.65;3.90;;;;;;;;;;5053675;28;20052;-56
2024/03/17 02:51:49;;;;;;;6.47;3.72;;;;;;;;;;5053974;28;20527;-59
2024/03/17 02:54:16;;;;;;;6.07;3.85;;;;;;;;;;5053920;28;20095;-56
2024/03/17 02:56:44;;;;;;;6.57;3.90;;;;;;;;;;5053125;28;20410;-59
2024/03/17 02:59:11;;;;;;;6.65;3.88;;;;;;;;;;5053999;28;20056;-58
2024/03/17 03:01:38;;;;;;;6.53;3.55;;;;;;;;;;5047662;28;20056;-60
2024/03/17 03:04:05;;;;;;;6.55;3.65;;;;;;;;;;5033696;28;20052;-60
2024/03/17 03:06:33;;;;;;;6.10;3.75;;;;;;;;;;5033772;28;20049;-59
2024/03/17 03:09:00;;;;;;;6.82;3.47;;;;;;;;;;5042518;28;20045;-55
2024/03/17 03:11:26;;;;;;;5.75;3.42;;;;;;;;;;5053833;28;20049;-56
2024/03/17 03:13:55;;;;;;;7.13;3.75;;;;;;;;;;5053803;28;20056;-59
2024/03/17 03:16:22;;;;;;;5.68;3.70;;;;;;;;;;5053134;28;20052;-58
2024/03/17 03:18:49;;;;;;;7.90;4.03;;;;;;;;;;5053200;28;20055;-59
2024/03/17 03:21:16;;;;;;;6.75;3.45;;;;;;;;;;5051118;28;20072;-58
2024/03/17 03:23:46;;;;;;;7.90;4.00;;;;;;;;;;5052936;28;20080;-60
2024/03/17 03:26:13;;;;;;;7.90;3.55;;;;;;;;;;5033941;28;20053;-59
2024/03/17 03:28:40;;;;;;;7.43;3.00;;;;;;;;;;5032661;28;20049;-58
2024/03/17 03:31:13;;;;;;;7.35;3.28;;;;;;;;;;5035047;28;20390;-58
2024/03/17 03:33:40;;;;;;;7.50;3.70;;;;;;;;;;5052455;28;20041;-57
2024/03/17 03:36:11;;;;;;;9.63;4.07;;;;;;;;;;5052802;28;20048;-57
2024/03/17 03:38:38;;;;;;;6.63;3.53;;;;;;;;;;5052449;28;20048;-58
2024/03/17 03:41:09;;;;;;;6.10;3.17;;;;;;;;;;5042422;28;20057;-57
2024/03/17 03:43:36;;;;;;;6.20;3.35;;;;;;;;;;5041124;28;20052;-58
2024/03/17 03:46:04;;;;;;;6.65;3.42;;;;;;;;;;5032797;28;20053;-58
2024/03/17 03:48:34;;;;;;;6.60;4.18;;;;;;;;;;5045926;28;20053;-58
2024/03/17 03:51:04;;;;;;;7.35;4.13;;;;;;;;;;5052593;28;20044;-59
2024/03/17 03:53:31;;;;;;;6.18;3.83;;;;;;;;;;5052342;28;20053;-58
2024/03/17 03:55:59;;;;;;;6.78;4.20;;;;;;;;;;5051822;28;20053;-58
2024/03/17 03:58:26;;;;;;;7.78;4.32;;;;;;;;;;5051955;28;20052;-56
2024/03/17 04:00:53;;;;;;;7.05;3.88;;;;;;;;;;5043466;28;20092;-56
2024/03/17 04:03:20;;;;;;;6.15;3.78;;;;;;;;;;5041695;28;20481;-54
2024/03/17 04:05:48;;;;;;;7.10;4.28;;;;;;;;;;5051765;28;20048;-56
2024/03/17 04:08:15;;;;;;;7.43;4.13;;;;;;;;;;5048795;28;20469;-58
2024/03/17 04:10:44;;;;;;;7.97;4.03;;;;;;;;;;5046746;28;20053;-57
2024/03/17 04:13:11;;;;;;;7.63;4.15;;;;;;;;;;5051546;28;20049;-55
2024/03/17 04:15:39;;;;;;;7.25;4.35;;;;;;;;;;5052073;28;20056;-58
2024/03/17 04:18:06;;;;;;;6.32;4.07;;;;;;;;;;5051779;28;20052;-59
2024/03/17 04:20:32;;;;;;;7.68;4.20;;;;;;;;;;5051361;28;20053;-57
2024/03/17 04:23:01;;;;;;;8.52;4.70;;;;;;;;;;5051468;28;20060;-56
2024/03/17 04:25:28;;;;;;;6.75;4.32;;;;;;;;;;5051431;28;20045;-59
2024/03/17 04:27:54;;;;;;;8.07;5.05;;;;;;;;;;5051458;28;20049;-59
2024/03/17 04:30:21;;;;;;;8.18;4.97;;;;;;;;;;5051399;28;20056;-57
2024/03/17 04:32:48;;;;;;;8.52;5.05;;;;;;;;;;5035533;28;20049;-57
2024/03/17 04:35:16;;;;;;;7.75;4.32;;;;;;;;;;5031514;28;20057;-55
2024/03/17 04:37:43;;;;;;;6.07;3.85;;;;;;;;;;5031730;28;20551;-62
2024/03/17 04:40:12;;;;;;;7.55;4.32;;;;;;;;;;5042181;28;20467;-58
2024/03/17 04:42:39;;;;;;;7.10;4.43;;;;;;;;;;5051529;28;20094;-57
2024/03/17 04:45:09;;;;;;;7.88;4.20;;;;;;;;;;5049331;28;20048;-58
2024/03/17 04:47:36;;;;;;;8.20;4.40;;;;;;;;;;5031326;28;20049;-58
2024/03/17 04:50:04;;;;;;;8.55;4.18;;;;;;;;;;5031669;28;20146;-58
2024/03/17 04:52:31;;;;;;;7.80;4.60;;;;;;;;;;5031842;28;20489;-57
2024/03/17 04:54:58;;;;;;;8.95;4.60;;;;;;;;;;5031662;28;20488;-59
2024/03/17 04:57:26;;;;;;;7.20;3.83;;;;;;;;;;5031642;28;20060;-59
2024/03/17 04:59:53;;;;;;;8.20;4.25;;;;;;;;;;5047963;28;20060;-58
2024/03/17 05:02:21;;;;;;;7.18;4.57;;;;;;;;;;5051245;28;20070;-56
2024/03/17 05:04:48;;;;;;;7.70;5.03;;;;;;;;;;5051153;28;20132;-57
2024/03/17 05:07:15;;;;;;;8.10;4.18;;;;;;;;;;5051340;28;20053;-58
2024/03/17 05:09:43;;;;;;;8.73;4.60;;;;;;;;;;5044617;28;20049;-58
2024/03/17 05:12:10;;;;;;;8.52;4.47;;;;;;;;;;5033581;28;20141;-56
2024/03/17 05:14:39;;;;;;;7.75;5.10;;;;;;;;;;5051095;28;20044;-58
2024/03/17 05:17:06;;;;;;;9.70;5.32;;;;;;;;;;5033037;28;20064;-59
2024/03/17 05:19:32;;;;;;;7.68;4.50;;;;;;;;;;5032024;28;20054;-59
2024/03/17 05:21:59;;;;;;;9.52;5.65;;;;;;;;;;5034931;28;20061;-58
2024/03/17 05:24:26;;;;;;;7.90;4.78;;;;;;;;;;5034951;28;20128;-58
2024/03/17 05:26:53;;;;;;;9.43;5.72;;;;;;;;;;5043153;28;20045;-59
2024/03/17 05:29:20;;;;;;;8.85;5.22;;;;;;;;;;5054839;28;20099;-58
2024/03/17 05:31:50;;;;;;;9.52;5.65;;;;;;;;;;5055018;28;20057;-55
2024/03/17 05:34:17;;;;;;;8.75;5.57;;;;;;;;;;5052723;28;20048;-60
2024/03/17 05:36:44;;;;;;;10.13;5.22;;;;;;;;;;5049922;28;20049;-60
2024/03/17 05:39:11;;;;;;;8.95;5.10;;;;;;;;;;5054469;28;20053;-60
2024/03/17 05:41:38;;;;;;;9.05;5.30;;;;;;;;;;5054712;28;20106;-60
2024/03/17 05:44:05;;;;;;;10.30;6.15;;;;;;;;;;5054542;28;20052;-56
2024/03/17 05:46:32;;;;;;;8.35;5.03;;;;;;;;;;5054578;28;20053;-59
2024/03/17 05:49:00;;;;;;;8.98;5.07;;;;;;;;;;5054021;28;20064;-60
2024/03/17 05:51:27;;;;;;;7.50;4.43;;;;;;;;;;5054663;28;20049;-60
2024/03/17 05:53:55;;;;;;;9.25;4.97;;;;;;;;;;5054191;28;20071;-60
2024/03/17 05:56:22;;;;;;;7.70;4.30;;;;;;;;;;5054820;28;20557;-60
2024/03/17 05:58:50;;;;;;;7.38;4.47;;;;;;;;;;5054493;28;20060;-59
2024/03/17 06:01:17;;;;;;;7.30;4.05;;;;;;;;;;5054527;28;20385;-59
2024/03/17 06:03:44;;;;;;;7.75;4.80;;;;;;;;;;5052225;28;20045;-59
2024/03/17 06:06:12;;;;;;;8.27;4.00;;;;;;;;;;5054637;28;20075;-59
2024/03/17 06:08:39;;;;;;;8.00;4.18;;;;;;;;;;5054408;28;20049;-55
2024/03/17 06:11:06;;;;;;;6.55;4.03;;;;;;;;;;5054698;28;20114;-59
2024/03/17 06:13:33;;;;;;;7.70;3.95;;;;;;;;;;5054345;28;20057;-58
2024/03/17 06:16:02;;;;;;;7.13;4.18;;;;;;;;;;5054307;28;20052;-58
2024/03/17 06:18:29;;;;;;;7.63;4.20;;;;;;;;;;5054271;28;20515;-59
2024/03/17 06:20:58;;;;;;;7.50;3.88;;;;;;;;;;5054087;28;20048;-58
2024/03/17 06:23:28;;;;;;;7.32;4.80;;;;;;;;;;5054644;28;20055;-58
2024/03/17 06:25:56;;;;;;;6.80;3.85;;;;;;;;;;5054064;28;20098;-58
2024/03/17 06:28:23;;;;;;;6.75;3.83;;;;;;;;;;5053963;28;20049;-61
2024/03/17 06:30:59;;;;;;;8.55;3.67;;;;;;;;;;5052701;28;20053;-58
2024/03/17 06:33:27;;;;;;;6.13;3.85;;;;;;;;;;5033902;28;20049;-57
2024/03/17 06:35:54;;;;;;;7.13;4.00;;;;;;;;;;5042398;28;20504;-57
2024/03/17 06:38:21;;;;;;;6.22;3.40;;;;;;;;;;5053917;28;20049;-58
2024/03/17 06:40:53;;;;;;;6.18;3.40;;;;;;;;;;5048558;28;20488;-55
2024/03/17 06:43:20;;;;;;;6.93;3.78;;;;;;;;;;5033799;28;20049;-58
2024/03/17 06:45:57;;;;;;;7.65;3.83;;;;;;;;;;5033579;28;20046;-58
2024/03/17 06:48:25;;;;;;;6.93;3.80;;;;;;;;;;5033545;28;20185;-58
2024/03/17 06:50:54;;;;;;;6.40;3.30;;;;;;;;;;5033685;28;20053;-57
2024/03/17 06:53:21;;;;;;;6.05;3.33;;;;;;;;;;5033586;28;20060;-56
2024/03/17 06:55:59;;;;;;;7.18;4.15;;;;;;;;;;5033582;28;20046;-57
2024/03/17 06:58:29;;;;;;;6.82;3.83;;;;;;;;;;5046231;28;20067;-58
2024/03/17 07:00:57;;;;;;;7.93;3.92;;;;;;;;;;5053341;28;20136;-57
2024/03/17 07:03:25;;;;;;;7.07;3.80;;;;;;;;;;5053310;28;20056;-54
2024/03/17 07:05:54;;;;;;;7.70;3.70;;;;;;;;;;5053572;28;20077;-56
2024/03/17 07:08:21;;;;;;;7.20;3.58;;;;;;;;;;5045183;28;20114;-55
2024/03/17 07:11:02;;;;;;;6.90;3.88;;;;;;;;;;5053062;28;20048;-54
2024/03/17 07:13:30;;;;;;;8.02;4.55;;;;;;;;;;5033480;28;20049;-57
2024/03/17 07:15:57;;;;;;;7.30;3.90;;;;;;;;;;5033604;28;20524;-57
2024/03/17 07:18:26;;;;;;;6.05;3.67;;;;;;;;;;5045968;28;20072;-56
2024/03/17 07:20:53;;;;;;;6.93;4.10;;;;;;;;;;5053519;28;20139;-58
2024/03/17 07:23:20;;;;;;;6.95;3.83;;;;;;;;;;5049807;28;20076;-57
2024/03/17 07:25:53;;;;;;;7.63;4.22;;;;;;;;;;5048972;28;20049;-58
2024/03/17 07:28:22;;;;;;;6.70;3.78;;;;;;;;;;5044864;28;20049;-54
2024/03/17 07:30:50;;;;;;;6.85;4.20;;;;;;;;;;5053464;28;20416;-58
2024/03/17 07:33:17;;;;;;;6.82;3.80;;;;;;;;;;5053331;28;20495;-57
2024/03/17 07:35:54;;;;;;;7.35;4.30;;;;;;;;;;5053204;28;20048;-57
2024/03/17 07:38:22;;;;;;;7.93;4.22;;;;;;;;;;5044732;28;20129;-58
2024/03/17 07:40:57;;;;;;;7.25;3.65;;;;;;;;;;5049292;28;20145;-57
2024/03/17 07:43:26;;;;;;;8.20;4.45;;;;;;;;;;5042618;28;20417;-56
2024/03/17 07:46:03;;;;;;;6.50;3.42;;;;;;;;;;5035399;28;20055;-58
2024/03/17 07:48:31;;;;;;;10.27;4.13;;;;;;;;;;5042405;28;20066;-53
2024/03/17 07:51:00;;;;;;;5.70;3.45;;;;;;;;;;5052624;28;20421;-57
2024/03/17 07:53:27;;;;;;;10.98;3.58;;;;;;;;;;5052337;28;20143;-58
2024/03/17 07:56:01;;;;;;;9.27;3.90;;;;;;;;;;5052607;28;20515;-58
2024/03/17 07:58:30;;;;;;;6.90;2.90;;;;;;;;;;5052177;28;20048;-56
2024/03/17 08:01:00;;;;;;;5.80;3.08;;;;;;;;;;5052110;28;20072;-55
2024/03/17 08:03:28;;;;;;;6.03;3.28;;;;;;;;;;5052085;28;20111;-58
2024/03/17 08:05:55;;;;;;;5.47;2.95;;;;;;;;;;5051669;28;20052;-56
2024/03/17 08:08:22;;;;;;;6.55;2.88;;;;;;;;;;5035863;28;20045;-59
2024/03/17 08:10:49;;;;;;;5.75;3.20;;;;;;;;;;5052093;28;20049;-58
2024/03/17 08:13:16;;;;;;;6.22;3.72;;;;;;;;;;5051823;28;20485;-59
2024/03/17 08:15:46;;;;;;;6.45;3.58;;;;;;;;;;5052423;28;20558;-59
2024/03/17 08:18:13;;;;;;;5.63;3.30;;;;;;;;;;5051935;28;20076;-56
2024/03/17 08:20:40;;;;;;;5.20;3.00;;;;;;;;;;5052058;28;20420;-58
2024/03/17 08:23:07;;;;;;;6.50;3.08;;;;;;;;;;5052061;28;20091;-58
2024/03/17 08:25:34;;;;;;;6.68;3.40;;;;;;;;;;5051787;28;20045;-58
2024/03/17 08:28:01;;;;;;;6.57;3.40;;;;;;;;;;5052022;28;20049;-56
2024/03/17 08:30:30;;;;;;;7.57;3.75;;;;;;;;;;5051813;28;20045;-56
2024/03/17 08:32:58;;;;;;;6.03;3.25;;;;;;;;;;5051959;28;20055;-57
2024/03/17 08:35:25;;;;;;;5.22;3.08;;;;;;;;;;5039250;28;20045;-57
2024/03/17 08:37:54;;;;;;;7.85;3.75;;;;;;;;;;5031856;28;20442;-59
2024/03/17 08:40:21;;;;;;;5.50;3.30;;;;;;;;;;5043801;28;20056;-56
2024/03/17 08:42:47;;;;;;;7.20;4.13;;;;;;;;;;5051546;28;20484;-58
2024/03/17 08:45:14;;;;;;;6.82;3.22;;;;;;;;;;5051562;28;20060;-58
2024/03/17 08:47:41;;;;;;;5.78;3.75;;;;;;;;;;5051427;28;20049;-58
2024/03/17 08:50:12;;;;;;;6.38;4.30;;;;;;;;;;5051861;28;20057;-58
2024/03/17 08:52:39;;;;;;;;;;;;;;;;;;5052027;28;20464;-54
2024/03/17 08:55:09;;;;;;;6.80;3.40;;;;;;;;;;5050692;28;19925;-55
2024/03/17 08:57:36;;;;;;;7.22;3.95;;;;;;;;;;5051530;28;20044;-59
2024/03/17 09:00:04;;;;;;;5.75;3.65;;;;;;;;;;5051299;28;20056;-60
2024/03/17 09:02:31;;;;;;;5.85;3.13;;;;;;;;;;5051837;28;20504;-59
2024/03/17 09:04:58;;;;;;;6.13;3.03;;;;;;;;;;5051553;28;20059;-58
2024/03/17 09:07:27;;;;;;;6.05;3.50;;;;;;;;;;5038684;28;20053;-58
2024/03/17 09:09:54;;;;;;;6.45;3.72;;;;;;;;;;5031425;28;20053;-58
2024/03/17 09:12:20;;;;;;;6.28;3.08;;;;;;;;;;5031445;28;20052;-58
2024/03/17 09:14:48;;;;;;;5.38;3.53;;;;;;;;;;5048409;28;20330;-54
2024/03/17 09:17:15;;;;;;;5.85;2.72;;;;;;;;;;5051536;28;20408;-57
2024/03/17 09:19:42;;;;;;;5.00;3.00;;;;;;;;;;5051378;28;20049;-58
2024/03/17 09:22:09;;;;;;;4.70;2.95;;;;;;;;;;5051151;28;20057;-58
2024/03/17 09:24:37;;;;;;;6.38;3.72;;;;;;;;;;5051651;28;20412;-55
2024/03/17 09:27:05;;;;;;;4.93;3.08;;;;;;;;;;5049923;28;20045;-58
2024/03/17 09:29:32;;;;;;;5.00;3.10;;;;;;;;;;5044531;28;20137;-56
2024/03/17 09:31:59;;;;;;;4.90;2.80;;;;;;;;;;5051164;28;20056;-60
2024/03/17 09:34:26;;;;;;;4.97;2.40;;;;;;;;;;5051058;28;20060;-58
2024/03/17 09:36:53;;;;;;;6.55;3.70;;;;;;;;;;5051264;28;20049;-58
2024/03/17 09:39:20;;;;;;;4.70;2.78;;;;;;;;;;5042888;28;20048;-55
2024/03/17 09:41:49;;;;;;;5.80;2.60;;;;;;;;;;5043749;28;20065;-54
2024/03/17 09:44:16;;;;;;;5.65;2.55;;;;;;;;;;5050782;28;20493;-56
2024/03/17 09:46:43;;;;;;;5.15;2.60;;;;;;;;;;5050915;28;20068;-58
2024/03/17 09:49:15;;;;;;;5.13;2.95;;;;;;;;;;5050828;28;20049;-52
2024/03/17 09:51:43;;;;;;;4.40;2.70;;;;;;;;;;5051258;28;20480;-59
2024/03/17 09:54:19;;;;;;;6.05;2.70;;;;;;;;;;5050739;28;20049;-58
2024/03/17 09:56:46;;;;;;;4.40;2.70;;;;;;;;;;5050687;28;20057;-58
2024/03/17 09:59:14;;;;;;;4.80;2.45;;;;;;;;;;5050681;28;20099;-56
2024/03/17 10:01:42;;;;;;;5.55;2.70;;;;;;;;;;5050915;28;20044;-56
2024/03/17 10:04:10;;;;;;;4.47;2.47;;;;;;;;;;5050946;28;20044;-58
2024/03/17 10:06:46;;;;;;;4.18;2.08;;;;;;;;;;5053295;28;20128;-56
2024/03/17 10:09:20;;;;;;;4.72;2.78;;;;;;;;;;5054362;28;20095;-58
2024/03/17 10:11:48;;;;;;;3.80;2.10;;;;;;;;;;5054678;28;20060;-58
2024/03/17 10:14:18;;;;;;;5.00;2.47;;;;;;;;;;5054653;28;20076;-59
2024/03/17 10:16:45;;;;;;;4.53;2.10;;;;;;;;;;5054895;28;20633;-57
2024/03/17 10:19:13;;;;;;;4.70;2.60;;;;;;;;;;5044093;28;20096;-61
2024/03/17 10:21:41;;;;;;;3.20;2.05;;;;;;;;;;5034336;28;20057;-57
2024/03/17 10:24:10;;;;;;;3.88;2.28;;;;;;;;;;5053369;28;20075;-58
2024/03/17 10:26:39;;;;;;;3.45;1.92;;;;;;;;;;5054508;28;20045;-58
2024/03/17 10:29:16;;;;;;;5.13;2.08;;;;;;;;;;5054258;28;20080;-57
2024/03/17 10:31:45;;;;;;;4.47;2.33;;;;;;;;;;5054220;28;20045;-60
2024/03/17 10:34:18;;;;;;;5.97;2.00;;;;;;;;;;5051743;28;20061;-58
2024/03/17 10:36:47;;;;;;;4.43;1.70;;;;;;;;;;5034392;28;20481;-56
2024/03/17 10:39:32;;;;;;;3.83;1.90;;;;;;;;;;5053215;28;20045;-58
2024/03/17 10:42:01;;;;;;;4.53;1.55;;;;;;;;;;5053845;28;20492;-59
2024/03/17 10:44:28;;;;;;;5.35;3.22;;;;;;;;;;5054247;28;20049;-56
2024/03/17 10:46:58;;;;;;;5.07;1.85;;;;;;;;;;5045112;28;20041;-59
2024/03/17 10:49:30;;;;;;;3.47;1.67;;;;;;;;;;5054264;28;20049;-57
2024/03/17 10:52:00;;;;;;;4.90;1.80;;;;;;;;;;5053814;28;20056;-55
2024/03/17 10:54:28;;;;;;;3.22;1.40;;;;;;;;;;5054089;28;20048;-58
2024/03/17 10:56:57;;;;;;;3.53;1.58;;;;;;;;;;5054400;28;20060;-58
2024/03/17 10:59:33;;;;;;;4.93;2.30;;;;;;;;;;5051612;28;20052;-56
2024/03/17 11:02:03;;;;;;;3.03;1.48;;;;;;;;;;5053765;28;20098;-58
2024/03/17 11:04:31;;;;;;;5.18;1.77;;;;;;;;;;5053422;28;20169;-59
2024/03/17 11:07:00;;;;;;;4.40;1.60;;;;;;;;;;5053020;28;20134;-57
2024/03/17 11:09:28;;;;;;;4.38;2.00;;;;;;;;;;5053122;28;20055;-57
2024/03/17 11:11:55;;;;;;;4.40;1.80;;;;;;;;;;5053488;28;20049;-59
2024/03/17 11:14:22;;;;;;;3.88;1.75;;;;;;;;;;5033257;28;20053;-59
2024/03/17 11:16:50;;;;;;;3.40;1.90;;;;;;;;;;5032622;28;20049;-58
2024/03/17 11:19:18;;;;;;;3.10;1.70;;;;;;;;;;5044470;28;20080;-58
2024/03/17 11:21:44;;;;;;;3.05;1.42;;;;;;;;;;5053699;28;20103;-60
2024/03/17 11:24:20;;;;;;;5.43;2.97;;;;;;;;;;5051160;28;20504;-55
2024/03/17 11:26:47;;;;;;;5.18;2.45;;;;;;;;;;5047929;28;20481;-56
2024/03/17 11:29:28;;;;;;;4.63;2.10;;;;;;;;;;5050597;28;20489;-52
2024/03/17 11:31:55;;;;;;;;;;;;;;;;;;5053015;28;20075;-59
2024/03/17 11:34:35;;;;;;;4.85;1.73;;;;;;;;;;5044995;28;20303;-60
2024/03/17 11:37:03;;;;;;;3.92;1.80;;;;;;;;;;5052270;28;20045;-55
2024/03/17 11:39:51;;;;;;;4.50;1.58;;;;;;;;;;5052277;28;20055;-52
2024/03/17 11:42:18;;;;;;;3.03;1.50;;;;;;;;;;5048290;28;20099;-54
2024/03/17 11:44:54;;;;;;;4.05;1.60;;;;;;;;;;5045192;28;20242;-56
2024/03/17 11:47:21;;;;;;;3.08;1.50;;;;;;;;;;5040160;28;20049;-54
2024/03/17 11:49:52;;;;;;;3.65;1.98;;;;;;;;;;5047761;28;20056;-52
2024/03/17 11:52:19;;;;;;;4.22;1.60;;;;;;;;;;5051733;28;20076;-58
2024/03/17 11:54:47;;;;;;;2.72;1.48;;;;;;;;;;5052015;28;20053;-57
2024/03/17 11:57:16;;;;;;;3.17;1.60;;;;;;;;;;5049779;28;20417;-58
2024/03/17 11:59:46;;;;;;;4.90;1.50;;;;;;;;;;5046540;28;20059;-58
2024/03/17 12:02:17;;;;;;;3.70;1.60;;;;;;;;;;5050601;28;20045;-58
2024/03/17 12:04:45;;;;;;;3.55;1.58;;;;;;;;;;5045950;28;20112;-57
2024/03/17 12:07:14;;;;;;;4.95;1.85;;;;;;;;;;5051086;28;20051;-52
2024/03/17 12:09:42;;;;;;;4.35;1.58;;;;;;;;;;5050326;28;20492;-56
2024/03/17 12:12:13;;;;;;;3.42;1.50;;;;;;;;;;5051836;28;20507;-55
2024/03/17 12:14:41;;;;;;;4.78;1.60;;;;;;;;;;5051824;28;20242;-54
2024/03/17 12:17:09;;;;;;;3.67;1.58;;;;;;;;;;5051384;28;20045;-55
2024/03/17 12:19:36;;;;;;;2.83;1.98;;;;;;;;;;5050750;28;20527;-53
2024/03/17 12:22:03;;;;;;;4.43;2.05;;;;;;;;;;5051668;28;20048;-55
2024/03/17 12:24:33;;;;;;;3.20;1.50;;;;;;;;;;5051959;28;20389;-57
2024/03/17 12:27:00;;;;;;;3.10;1.40;;;;;;;;;;5051257;28;20048;-56
2024/03/17 12:29:30;;;;;;;3.60;1.42;;;;;;;;;;5049045;28;20059;-56
2024/03/17 12:31:58;;;;;;;3.63;1.63;;;;;;;;;;5046634;28;20088;-55
2024/03/17 12:34:28;;;;;;;3.63;1.50;;;;;;;;;;5043463;28;20291;-56
2024/03/17 12:36:55;;;;;;;3.27;1.50;;;;;;;;;;5048634;28;20061;-54
2024/03/17 12:39:23;;;;;;;4.15;1.52;;;;;;;;;;5051146;28;20369;-56
2024/03/17 12:42:04;;;;;;;3.78;1.33;;;;;;;;;;5046818;28;20052;-53
2024/03/17 12:44:31;;;;;;;4.57;1.83;;;;;;;;;;5045150;28;20562;-62
2024/03/17 12:47:00;;;;;;;3.85;1.60;;;;;;;;;;5040937;28;20041;-63
2024/03/17 12:49:27;;;;;;;4.63;1.73;;;;;;;;;;5040942;28;20044;-64
2024/03/17 12:51:53;;;;;;;3.63;1.48;;;;;;;;;;5051438;28;20053;-62
2024/03/17 12:54:25;;;;;;;2.65;1.27;;;;;;;;;;5048926;28;20053;-65
2024/03/17 13:02:41;;;;;;;4.20;1.55;;;;;;;;;;4982378;28;20050;-54
2024/03/17 13:05:20;;;;;;;3.85;2.10;;;;;;;;;;5041114;28;20049;-61
2024/03/17 13:07:47;;;;;;;4.93;1.63;;;;;;;;;;5046001;28;20069;-58
2024/03/17 13:10:15;;;;;;;5.53;1.50;;;;;;;;;;5041355;28;20056;-63
2024/03/17 13:12:42;;;;;;;4.97;1.70;;;;;;;;;;5047039;28;20073;-64
2024/03/17 13:15:14;;;;;;;3.28;1.40;;;;;;;;;;5042151;28;20044;-66
2024/03/17 13:17:42;;;;;;;4.90;1.73;;;;;;;;;;5043185;28;20140;-57
2024/03/17 13:20:14;;;;;;;5.07;1.40;;;;;;;;;;5048866;28;20049;-59
2024/03/17 13:22:42;;;;;;;3.08;1.50;;;;;;;;;;5045639;28;20509;-54
2024/03/17 13:25:17;;;;;;;2.65;1.35;;;;;;;;;;5050801;28;20052;-56
2024/03/17 13:27:45;;;;;;;3.60;1.50;;;;;;;;;;5050330;28;20745;-57
2024/03/17 13:30:14;;;;;;;4.72;1.50;;;;;;;;;;5046337;28;20432;-55
2024/03/17 13:32:44;;;;;;;3.50;1.60;;;;;;;;;;5049906;28;20057;-55
2024/03/17 13:35:17;;;;;;;3.15;1.38;;;;;;;;;;5048231;28;20414;-53
2024/03/17 13:37:43;;;;;;;4.20;1.60;;;;;;;;;;5044980;28;20497;-55
2024/03/17 13:40:12;;;;;;;4.65;1.55;;;;;;;;;;5047820;28;20053;-57
2024/03/17 13:42:40;;;;;;;3.50;1.60;;;;;;;;;;5050361;28;20416;-52
2024/03/17 13:45:11;;;;;;;9.20;1.75;;;;;;;;;;5049618;28;20094;-53
2024/03/17 13:47:40;;;;;;;4.10;1.30;;;;;;;;;;5043977;28;20037;-58
2024/03/17 13:50:12;;;;;;;3.95;1.50;;;;;;;;;;5053700;28;20044;-53
2024/03/17 13:52:39;;;;;;;4.18;1.40;;;;;;;;;;5048062;28;20061;-64
2024/03/17 13:55:07;;;;;;;2.90;1.38;;;;;;;;;;5053749;28;20421;-59
2024/03/17 13:57:34;;;;;;;5.20;1.90;;;;;;;;;;5043469;28;20409;-57
2024/03/17 14:00:02;;;;;;;4.50;1.60;;;;;;;;;;5048085;28;20099;-56
2024/03/17 14:02:29;;;;;;;3.72;1.67;;;;;;;;;;5044553;28;20057;-55
2024/03/17 14:04:57;;;;;;;4.50;1.50;;;;;;;;;;5048466;28;20053;-55
2024/03/17 14:07:24;;;;;;;3.13;1.20;;;;;;;;;;5050456;28;20049;-57
2024/03/17 14:09:51;;;;;;;2.75;1.58;;;;;;;;;;5050676;28;20053;-59
2024/03/17 14:12:17;;;;;;;3.67;1.38;;;;;;;;;;5047225;28;20073;-54
2024/03/17 14:14:44;;;;;;;3.58;1.38;;;;;;;;;;5052024;28;20041;-56
2024/03/17 14:17:11;;;;;;;2.85;1.45;;;;;;;;;;5048848;28;20051;-58
2024/03/17 14:19:38;;;;;;;4.13;1.40;;;;;;;;;;5047853;28;20465;-53
2024/03/17 14:22:07;;;;;;;4.63;1.60;;;;;;;;;;5039910;28;20057;-55
2024/03/17 14:24:34;;;;;;;6.90;1.30;;;;;;;;;;5045059;28;20049;-59
2024/03/17 14:27:01;;;;;;;1.83;1.00;;;;;;;;;;5048718;28;20044;-56
2024/03/17 14:29:28;;;;;;;2.42;1.35;;;;;;;;;;5046229;28;20151;-56
2024/03/17 14:31:55;;;;;;;3.40;1.33;;;;;;;;;;5041241;28;20045;-58
2024/03/17 14:34:22;;;;;;;2.83;1.38;;;;;;;;;;5049394;28;20488;-59
2024/03/17 14:36:49;;;;;;;3.38;1.30;;;;;;;;;;5042262;28;20045;-58
2024/03/17 14:39:17;;;;;;;4.32;1.33;;;;;;;;;;5042352;28;20046;-59
2024/03/17 14:41:44;;;;;;;4.10;1.40;;;;;;;;;;5038392;28;20456;-59
2024/03/17 14:44:11;;;;;;;4.10;1.60;;;;;;;;;;5050100;28;20045;-57
2024/03/17 14:46:38;;;;;;;4.72;1.50;;;;;;;;;;5050450;28;20055;-56
2024/03/17 14:49:05;;;;;;;3.92;1.48;;;;;;;;;;5046733;28;20045;-55
2024/03/17 14:51:32;;;;;;;4.68;2.22;;;;;;;;;;5048546;28;20486;-57
2024/03/17 14:54:00;;;;;;;4.13;1.40;;;;;;;;;;5050353;28;20044;-58
2024/03/17 14:56:31;;;;;;;3.97;1.50;;;;;;;;;;5050367;28;20076;-57